sensor_id;sensor_type;location;lat;lon;timestamp;pressure;altitude;pressure_sealevel;temperature;humidity
64076;BME280;50327;51.328;12.324;2022-08-19T00:02:02;53259.31;;;-144.47;90.83
64076;BME280;50327;51.328;12.324;2022-08-19T00:04:31;53293.06;;;-144.47;91.25
64076;BME280;50327;51.328;12.324;2022-08-19T00:06:58;53283.13;;;-144.47;91.32
64076;BME280;50327;51.328;12.324;2022-08-19T00:09:25;53324.84;;;-144.47;91.42
64076;BME280;50327;51.328;12.324;2022-08-19T00:11:52;53295.06;;;-144.47;91.07
64076;BME280;50327;51.328;12.324;2022-08-19T00:14:18;53308.97;;;-144.47;90.43
64076;BME280;50327;51.328;12.324;2022-08-19T00:16:46;53352.66;;;-144.47;90.90
64076;BME280;50327;51.328;12.324;2022-08-19T00:19:13;53308.97;;;-144.47;90.95
64076;BME280;50327;51.328;12.324;2022-08-19T00:21:38;53299.03;;;-144.47;90.69
64076;BME280;50327;51.328;12.324;2022-08-19T00:24:07;53322.88;;;-144.47;90.92
64076;BME280;50327;51.328;12.324;2022-08-19T00:26:33;53336.78;;;-144.47;91.18
64076;BME280;50327;51.328;12.324;2022-08-19T00:28:58;53291.09;;;-144.47;90.83
64076;BME280;50327;51.328;12.324;2022-08-19T00:31:25;53299.03;;;-144.47;91.27
64076;BME280;50327;51.328;12.324;2022-08-19T00:33:53;53334.78;;;-144.47;90.65
64076;BME280;50327;51.328;12.324;2022-08-19T00:36:18;53310.94;;;-144.47;90.97
64076;BME280;50327;51.328;12.324;2022-08-19T00:38:44;53352.66;;;-144.47;90.92
64076;BME280;50327;51.328;12.324;2022-08-19T00:41:12;53289.09;;;-144.47;91.45
64076;BME280;50327;51.328;12.324;2022-08-19T00:43:38;53328.81;;;-144.47;91.27
64076;BME280;50327;51.328;12.324;2022-08-19T00:46:04;53330.81;;;-144.47;91.57
64076;BME280;50327;51.328;12.324;2022-08-19T00:48:31;53330.81;;;-144.47;91.52
64076;BME280;50327;51.328;12.324;2022-08-19T00:50:57;53283.13;;;-144.47;91.86
64076;BME280;50327;51.328;12.324;2022-08-19T00:53:26;53320.88;;;-144.47;92.06
64076;BME280;50327;51.328;12.324;2022-08-19T00:55:53;53346.72;;;-144.47;92.07
64076;BME280;50327;51.328;12.324;2022-08-19T00:58:22;53340.75;;;-144.47;93.20
64076;BME280;50327;51.328;12.324;2022-08-19T01:00:49;53322.88;;;-144.47;92.92
64076;BME280;50327;51.328;12.324;2022-08-19T01:03:18;53310.94;;;-144.47;93.72
64076;BME280;50327;51.328;12.324;2022-08-19T01:05:45;53334.78;;;-144.47;94.46
64076;BME280;50327;51.328;12.324;2022-08-19T01:08:11;53308.97;;;-144.47;94.18
64076;BME280;50327;51.328;12.324;2022-08-19T01:10:41;53334.78;;;-144.47;94.58
64076;BME280;50327;51.328;12.324;2022-08-19T01:13:07;53360.63;;;-144.47;95.29
64076;BME280;50327;51.328;12.324;2022-08-19T01:15:35;53295.06;;;-144.47;96.02
64076;BME280;50327;51.328;12.324;2022-08-19T01:18:08;53336.78;;;-144.47;96.51
64076;BME280;50327;51.328;12.324;2022-08-19T01:20:35;53297.03;;;-144.47;97.19
64076;BME280;50327;51.328;12.324;2022-08-19T01:23:01;53301.03;;;-144.47;97.83
64076;BME280;50327;51.328;12.324;2022-08-19T01:25:48;53297.03;;;-144.47;98.45
64076;BME280;50327;51.328;12.324;2022-08-19T01:28:23;53366.56;;;-144.47;98.69
64076;BME280;50327;51.328;12.324;2022-08-19T01:30:53;53320.88;;;-144.47;99.33
64076;BME280;50327;51.328;12.324;2022-08-19T01:33:20;53326.84;;;-144.47;99.69
64076;BME280;50327;51.328;12.324;2022-08-19T01:35:46;53328.81;;;-144.47;99.67
64076;BME280;50327;51.328;12.324;2022-08-19T01:38:24;53358.63;;;-144.47;99.81
64076;BME280;50327;51.328;12.324;2022-08-19T01:40:51;53332.81;;;-144.47;99.88
64076;BME280;50327;51.328;12.324;2022-08-19T01:43:17;53334.78;;;-144.47;99.88
64076;BME280;50327;51.328;12.324;2022-08-19T01:45:45;53324.84;;;-144.47;99.78
64076;BME280;50327;51.328;12.324;2022-08-19T01:48:10;53346.72;;;-144.47;99.83
64076;BME280;50327;51.328;12.324;2022-08-19T01:50:36;53332.81;;;-144.47;99.58
64076;BME280;50327;51.328;12.324;2022-08-19T01:53:04;53378.50;;;-144.47;99.67
64076;BME280;50327;51.328;12.324;2022-08-19T01:55:30;53340.75;;;-144.47;99.88
64076;BME280;50327;51.328;12.324;2022-08-19T01:58:00;53310.94;;;-144.47;100.00
64076;BME280;50327;51.328;12.324;2022-08-19T02:00:29;53328.81;;;-144.47;99.90
64076;BME280;50327;51.328;12.324;2022-08-19T02:02:56;53344.72;;;-144.47;100.00
64076;BME280;50327;51.328;12.324;2022-08-19T02:05:22;53312.94;;;-144.47;99.93
64076;BME280;50327;51.328;12.324;2022-08-19T02:07:48;53348.69;;;-144.47;99.99
64076;BME280;50327;51.328;12.324;2022-08-19T02:10:17;53328.81;;;-144.47;99.93
64076;BME280;50327;51.328;12.324;2022-08-19T02:12:43;53330.81;;;-144.47;100.00
64076;BME280;50327;51.328;12.324;2022-08-19T02:15:09;53305.00;;;-144.47;99.63
64076;BME280;50327;51.328;12.324;2022-08-19T02:17:35;53291.09;;;-144.47;99.74
64076;BME280;50327;51.328;12.324;2022-08-19T02:20:01;53348.69;;;-144.47;99.90
64076;BME280;50327;51.328;12.324;2022-08-19T02:22:26;53376.50;;;-144.47;99.70
64076;BME280;50327;51.328;12.324;2022-08-19T02:24:53;53334.78;;;-144.47;99.52
64076;BME280;50327;51.328;12.324;2022-08-19T02:27:18;53305.00;;;-144.47;99.56
64076;BME280;50327;51.328;12.324;2022-08-19T02:29:46;53334.78;;;-144.47;99.80
64076;BME280;50327;51.328;12.324;2022-08-19T02:32:12;53328.81;;;-144.47;99.43
64076;BME280;50327;51.328;12.324;2022-08-19T02:34:38;53338.75;;;-144.47;99.45
64076;BME280;50327;51.328;12.324;2022-08-19T02:37:04;53334.78;;;-144.47;99.42
64076;BME280;50327;51.328;12.324;2022-08-19T02:39:29;53356.63;;;-144.47;99.56
64076;BME280;50327;51.328;12.324;2022-08-19T02:41:55;53354.66;;;-144.47;99.57
64076;BME280;50327;51.328;12.324;2022-08-19T02:44:20;53372.53;;;-144.47;99.52
64076;BME280;50327;51.328;12.324;2022-08-19T02:46:47;53338.75;;;-144.47;99.30
64076;BME280;50327;51.328;12.324;2022-08-19T02:49:12;53328.81;;;-144.47;98.88
64076;BME280;50327;51.328;12.324;2022-08-19T02:51:40;53316.91;;;-144.47;99.16
64076;BME280;50327;51.328;12.324;2022-08-19T02:54:07;53350.69;;;-144.47;99.15
64076;BME280;50327;51.328;12.324;2022-08-19T02:56:35;53324.84;;;-144.47;98.98
64076;BME280;50327;51.328;12.324;2022-08-19T02:59:02;53342.72;;;-144.47;99.12
64076;BME280;50327;51.328;12.324;2022-08-19T03:01:31;53346.72;;;-144.47;99.00
64076;BME280;50327;51.328;12.324;2022-08-19T03:03:59;53334.78;;;-144.47;98.64
64076;BME280;50327;51.328;12.324;2022-08-19T03:06:26;53326.84;;;-144.47;98.88
64076;BME280;50327;51.328;12.324;2022-08-19T03:08:53;62369.91;;;-144.48;100.00
64076;BME280;50327;51.328;12.324;2022-08-19T03:11:27;62369.91;;;-144.48;100.00
64076;BME280;50327;51.328;12.324;2022-08-19T03:13:55;62369.91;;;-144.48;100.00
64076;BME280;50327;51.328;12.324;2022-08-19T03:16:22;62369.91;;;-144.48;100.00
64076;BME280;50327;51.328;12.324;2022-08-19T03:18:48;62369.91;;;-144.48;100.00
64076;BME280;50327;51.328;12.324;2022-08-19T03:21:19;62369.91;;;-144.48;100.00
64076;BME280;50327;51.328;12.324;2022-08-19T03:23:45;62369.91;;;-144.48;100.00
64076;BME280;50327;51.328;12.324;2022-08-19T03:26:11;62369.91;;;-144.48;100.00
64076;BME280;50327;51.328;12.324;2022-08-19T03:28:37;62369.91;;;-144.48;100.00
64076;BME280;50327;51.328;12.324;2022-08-19T03:31:09;62369.91;;;-144.48;100.00
64076;BME280;50327;51.328;12.324;2022-08-19T03:33:37;62369.91;;;-144.48;100.00
64076;BME280;50327;51.328;12.324;2022-08-19T03:36:20;62369.91;;;-144.48;100.00
64076;BME280;50327;51.328;12.324;2022-08-19T03:38:50;62369.91;;;-144.48;100.00
64076;BME280;50327;51.328;12.324;2022-08-19T03:41:37;62369.91;;;-144.48;100.00
64076;BME280;50327;51.328;12.324;2022-08-19T03:44:03;62369.91;;;-144.48;100.00
64076;BME280;50327;51.328;12.324;2022-08-19T03:46:31;62369.91;;;-144.48;100.00
64076;BME280;50327;51.328;12.324;2022-08-19T03:48:59;62369.91;;;-144.48;100.00
64076;BME280;50327;51.328;12.324;2022-08-19T03:51:37;62369.91;;;-144.48;100.00
64076;BME280;50327;51.328;12.324;2022-08-19T03:54:05;62369.91;;;-144.48;100.00
64076;BME280;50327;51.328;12.324;2022-08-19T03:56:31;62369.91;;;-144.48;100.00
64076;BME280;50327;51.328;12.324;2022-08-19T03:58:58;62369.91;;;-144.48;100.00
64076;BME280;50327;51.328;12.324;2022-08-19T04:01:26;62369.91;;;-144.48;100.00
64076;BME280;50327;51.328;12.324;2022-08-19T04:03:53;62369.91;;;-144.48;100.00
64076;BME280;50327;51.328;12.324;2022-08-19T04:06:25;62369.91;;;-144.48;100.00
64076;BME280;50327;51.328;12.324;2022-08-19T04:08:52;62369.91;;;-144.48;100.00
64076;BME280;50327;51.328;12.324;2022-08-19T04:11:26;62369.91;;;-144.48;100.00
64076;BME280;50327;51.328;12.324;2022-08-19T04:13:53;62369.91;;;-144.48;100.00
64076;BME280;50327;51.328;12.324;2022-08-19T04:16:20;62369.91;;;-144.48;100.00
64076;BME280;50327;51.328;12.324;2022-08-19T04:18:47;62369.91;;;-144.48;100.00
64076;BME280;50327;51.328;12.324;2022-08-19T04:21:19;62369.91;;;-144.48;100.00
64076;BME280;50327;51.328;12.324;2022-08-19T04:23:46;62369.91;;;-144.48;100.00
64076;BME280;50327;51.328;12.324;2022-08-19T04:26:17;62369.91;;;-144.48;100.00
64076;BME280;50327;51.328;12.324;2022-08-19T04:28:44;62369.91;;;-144.48;100.00
64076;BME280;50327;51.328;12.324;2022-08-19T04:31:21;62369.91;;;-144.48;100.00
64076;BME280;50327;51.328;12.324;2022-08-19T04:33:48;62369.91;;;-144.48;100.00
64076;BME280;50327;51.328;12.324;2022-08-19T04:36:25;62369.91;;;-144.48;100.00
64076;BME280;50327;51.328;12.324;2022-08-19T04:38:54;62369.91;;;-144.48;100.00
64076;BME280;50327;51.328;12.324;2022-08-19T04:41:21;62369.91;;;-144.48;100.00
64076;BME280;50327;51.328;12.324;2022-08-19T04:44:05;62369.91;;;-144.48;100.00
64076;BME280;50327;51.328;12.324;2022-08-19T04:46:32;62369.91;;;-144.48;100.00
64076;BME280;50327;51.328;12.324;2022-08-19T04:48:59;62369.91;;;-144.48;100.00
64076;BME280;50327;51.328;12.324;2022-08-19T04:51:25;62369.91;;;-144.48;100.00
64076;BME280;50327;51.328;12.324;2022-08-19T04:53:51;62369.91;;;-144.48;100.00
64076;BME280;50327;51.328;12.324;2022-08-19T04:56:18;62369.91;;;-144.48;100.00
64076;BME280;50327;51.328;12.324;2022-08-19T04:58:46;62369.91;;;-144.48;100.00
64076;BME280;50327;51.328;12.324;2022-08-19T05:01:14;62369.91;;;-144.48;100.00
64076;BME280;50327;51.328;12.324;2022-08-19T05:03:39;62369.91;;;-144.48;100.00
64076;BME280;50327;51.328;12.324;2022-08-19T05:06:07;62369.91;;;-144.48;100.00
64076;BME280;50327;51.328;12.324;2022-08-19T05:08:34;62369.91;;;-144.48;100.00
64076;BME280;50327;51.328;12.324;2022-08-19T05:11:01;62369.91;;;-144.48;100.00
64076;BME280;50327;51.328;12.324;2022-08-19T05:13:32;62369.91;;;-144.48;100.00
64076;BME280;50327;51.328;12.324;2022-08-19T05:15:58;62369.91;;;-144.48;100.00
64076;BME280;50327;51.328;12.324;2022-08-19T05:18:24;62369.91;;;-144.48;100.00
64076;BME280;50327;51.328;12.324;2022-08-19T05:21:16;62369.91;;;-144.48;100.00
64076;BME280;50327;51.328;12.324;2022-08-19T05:24:00;62369.91;;;-144.48;100.00
64076;BME280;50327;51.328;12.324;2022-08-19T05:26:27;62369.91;;;-144.48;100.00
64076;BME280;50327;51.328;12.324;2022-08-19T05:28:53;62369.91;;;-144.48;100.00
64076;BME280;50327;51.328;12.324;2022-08-19T05:31:19;62369.91;;;-144.48;100.00
64076;BME280;50327;51.328;12.324;2022-08-19T05:33:45;62369.91;;;-144.48;100.00
64076;BME280;50327;51.328;12.324;2022-08-19T05:36:11;62369.91;;;-144.48;100.00
64076;BME280;50327;51.328;12.324;2022-08-19T05:38:36;62369.91;;;-144.48;100.00
64076;BME280;50327;51.328;12.324;2022-08-19T05:41:12;62369.91;;;-144.48;100.00
64076;BME280;50327;51.328;12.324;2022-08-19T05:43:38;62369.91;;;-144.48;100.00
64076;BME280;50327;51.328;12.324;2022-08-19T05:46:05;62369.91;;;-144.48;100.00
64076;BME280;50327;51.328;12.324;2022-08-19T05:48:35;62369.91;;;-144.48;100.00
64076;BME280;50327;51.328;12.324;2022-08-19T05:51:05;62369.91;;;-144.48;100.00
64076;BME280;50327;51.328;12.324;2022-08-19T05:53:34;62369.91;;;-144.48;100.00
64076;BME280;50327;51.328;12.324;2022-08-19T05:56:07;62369.91;;;-144.48;100.00
64076;BME280;50327;51.328;12.324;2022-08-19T05:58:34;62369.91;;;-144.48;100.00
64076;BME280;50327;51.328;12.324;2022-08-19T06:01:00;62369.91;;;-144.48;100.00
64076;BME280;50327;51.328;12.324;2022-08-19T06:03:34;62369.91;;;-144.48;100.00
64076;BME280;50327;51.328;12.324;2022-08-19T06:06:00;62369.91;;;-144.48;100.00
64076;BME280;50327;51.328;12.324;2022-08-19T06:08:27;62369.91;;;-144.48;100.00
64076;BME280;50327;51.328;12.324;2022-08-19T06:10:53;62369.91;;;-144.48;100.00
64076;BME280;50327;51.328;12.324;2022-08-19T06:13:19;62369.91;;;-144.48;100.00
64076;BME280;50327;51.328;12.324;2022-08-19T06:15:45;62369.91;;;-144.48;100.00
64076;BME280;50327;51.328;12.324;2022-08-19T06:18:12;62369.91;;;-144.48;100.00
64076;BME280;50327;51.328;12.324;2022-08-19T06:20:38;62369.91;;;-144.48;100.00
64076;BME280;50327;51.328;12.324;2022-08-19T06:23:03;62369.91;;;-144.48;100.00
64076;BME280;50327;51.328;12.324;2022-08-19T06:25:29;62369.91;;;-144.48;100.00
64076;BME280;50327;51.328;12.324;2022-08-19T06:27:55;62369.91;;;-144.48;100.00
64076;BME280;50327;51.328;12.324;2022-08-19T06:30:20;62369.91;;;-144.48;100.00
64076;BME280;50327;51.328;12.324;2022-08-19T06:32:46;62369.91;;;-144.48;100.00
64076;BME280;50327;51.328;12.324;2022-08-19T06:35:11;62369.91;;;-144.48;100.00
64076;BME280;50327;51.328;12.324;2022-08-19T06:37:38;62369.91;;;-144.48;100.00
64076;BME280;50327;51.328;12.324;2022-08-19T06:40:04;62369.91;;;-144.48;100.00
64076;BME280;50327;51.328;12.324;2022-08-19T06:42:29;62369.91;;;-144.48;100.00
64076;BME280;50327;51.328;12.324;2022-08-19T06:44:55;62369.91;;;-144.48;100.00
64076;BME280;50327;51.328;12.324;2022-08-19T06:47:21;62369.91;;;-144.48;100.00
64076;BME280;50327;51.328;12.324;2022-08-19T06:49:47;62369.91;;;-144.48;100.00
64076;BME280;50327;51.328;12.324;2022-08-19T06:52:12;62369.91;;;-144.48;100.00
64076;BME280;50327;51.328;12.324;2022-08-19T06:54:40;62369.91;;;-144.48;100.00
64076;BME280;50327;51.328;12.324;2022-08-19T06:57:07;62369.91;;;-144.48;100.00
64076;BME280;50327;51.328;12.324;2022-08-19T06:59:34;62369.91;;;-144.48;100.00
64076;BME280;50327;51.328;12.324;2022-08-19T07:02:03;62369.91;;;-144.48;100.00
64076;BME280;50327;51.328;12.324;2022-08-19T07:04:31;62369.91;;;-144.48;100.00
64076;BME280;50327;51.328;12.324;2022-08-19T07:07:00;62369.91;;;-144.48;100.00
64076;BME280;50327;51.328;12.324;2022-08-19T07:09:26;62369.91;;;-144.48;100.00
64076;BME280;50327;51.328;12.324;2022-08-19T07:11:53;62369.91;;;-144.48;100.00
64076;BME280;50327;51.328;12.324;2022-08-19T07:14:22;62369.91;;;-144.48;100.00
64076;BME280;50327;51.328;12.324;2022-08-19T07:16:51;62369.91;;;-144.48;100.00
64076;BME280;50327;51.328;12.324;2022-08-19T07:19:18;62369.91;;;-144.48;100.00
64076;BME280;50327;51.328;12.324;2022-08-19T07:21:45;62369.91;;;-144.48;100.00
64076;BME280;50327;51.328;12.324;2022-08-19T07:24:11;62369.91;;;-144.48;100.00
64076;BME280;50327;51.328;12.324;2022-08-19T07:26:41;62369.91;;;-144.48;100.00
64076;BME280;50327;51.328;12.324;2022-08-19T07:29:07;62369.91;;;-144.48;100.00
64076;BME280;50327;51.328;12.324;2022-08-19T07:31:33;62369.91;;;-144.48;100.00
64076;BME280;50327;51.328;12.324;2022-08-19T07:34:07;62369.91;;;-144.48;100.00
64076;BME280;50327;51.328;12.324;2022-08-19T07:36:36;62369.91;;;-144.48;100.00
64076;BME280;50327;51.328;12.324;2022-08-19T07:39:04;62369.91;;;-144.48;100.00
64076;BME280;50327;51.328;12.324;2022-08-19T07:41:30;62369.91;;;-144.48;100.00
64076;BME280;50327;51.328;12.324;2022-08-19T07:43:57;62369.91;;;-144.48;100.00
64076;BME280;50327;51.328;12.324;2022-08-19T07:46:23;62369.91;;;-144.48;100.00
64076;BME280;50327;51.328;12.324;2022-08-19T07:48:49;62369.91;;;-144.48;100.00
64076;BME280;50327;51.328;12.324;2022-08-19T07:51:20;62369.91;;;-144.48;100.00
64076;BME280;50327;51.328;12.324;2022-08-19T07:53:47;62369.91;;;-144.48;100.00
64076;BME280;50327;51.328;12.324;2022-08-19T07:56:13;62369.91;;;-144.48;100.00
64076;BME280;50327;51.328;12.324;2022-08-19T07:58:41;62369.91;;;-144.48;100.00
64076;BME280;50327;51.328;12.324;2022-08-19T08:01:09;62369.91;;;-144.48;100.00
64076;BME280;50327;51.328;12.324;2022-08-19T08:03:36;62369.91;;;-144.48;100.00
64076;BME280;50327;51.328;12.324;2022-08-19T08:06:21;62369.91;;;-144.48;100.00
64076;BME280;50327;51.328;12.324;2022-08-19T08:09:06;62369.91;;;-144.48;100.00
64076;BME280;50327;51.328;12.324;2022-08-19T08:11:54;62369.91;;;-144.48;100.00
64076;BME280;50327;51.328;12.324;2022-08-19T08:14:29;62369.91;;;-144.48;100.00
64076;BME280;50327;51.328;12.324;2022-08-19T08:16:55;62369.91;;;-144.48;100.00
64076;BME280;50327;51.328;12.324;2022-08-19T08:19:22;62369.91;;;-144.48;100.00
64076;BME280;50327;51.328;12.324;2022-08-19T08:21:49;62369.91;;;-144.48;100.00
64076;BME280;50327;51.328;12.324;2022-08-19T08:24:15;62369.91;;;-144.48;100.00
64076;BME280;50327;51.328;12.324;2022-08-19T08:26:41;62369.91;;;-144.48;100.00
64076;BME280;50327;51.328;12.324;2022-08-19T08:29:07;62369.91;;;-144.48;100.00
64076;BME280;50327;51.328;12.324;2022-08-19T08:31:35;62369.91;;;-144.48;100.00
64076;BME280;50327;51.328;12.324;2022-08-19T08:34:01;62369.91;;;-144.48;100.00
64076;BME280;50327;51.328;12.324;2022-08-19T08:36:26;62369.91;;;-144.48;100.00
64076;BME280;50327;51.328;12.324;2022-08-19T08:38:52;62369.91;;;-144.48;100.00
64076;BME280;50327;51.328;12.324;2022-08-19T08:44:14;62369.91;;;-144.48;100.00
64076;BME280;50327;51.328;12.324;2022-08-19T08:46:48;62369.91;;;-144.48;100.00
64076;BME280;50327;51.328;12.324;2022-08-19T08:54:33;62369.91;;;-144.48;100.00
64076;BME280;50327;51.328;12.324;2022-08-19T08:56:59;62369.91;;;-144.48;100.00
64076;BME280;50327;51.328;12.324;2022-08-19T08:59:28;62369.91;;;-144.48;100.00
64076;BME280;50327;51.328;12.324;2022-08-19T09:01:57;62369.91;;;-144.48;100.00
64076;BME280;50327;51.328;12.324;2022-08-19T09:04:23;62369.91;;;-144.48;100.00
64076;BME280;50327;51.328;12.324;2022-08-19T09:09:45;62369.91;;;-144.48;100.00
64076;BME280;50327;51.328;12.324;2022-08-19T09:15:11;62369.91;;;-144.48;100.00
64076;BME280;50327;51.328;12.324;2022-08-19T09:17:37;62369.91;;;-144.48;100.00
64076;BME280;50327;51.328;12.324;2022-08-19T09:22:39;62369.91;;;-144.48;100.00
64076;BME280;50327;51.328;12.324;2022-08-19T09:25:08;62369.91;;;-144.48;100.00
64076;BME280;50327;51.328;12.324;2022-08-19T09:27:35;62369.91;;;-144.48;100.00
64076;BME280;50327;51.328;12.324;2022-08-19T09:30:03;62369.91;;;-144.48;100.00
64076;BME280;50327;51.328;12.324;2022-08-19T09:32:28;62369.91;;;-144.48;100.00
64076;BME280;50327;51.328;12.324;2022-08-19T09:34:54;62369.91;;;-144.48;100.00
64076;BME280;50327;51.328;12.324;2022-08-19T09:37:23;62369.91;;;-144.48;100.00
64076;BME280;50327;51.328;12.324;2022-08-19T09:39:50;62369.91;;;-144.48;100.00
64076;BME280;50327;51.328;12.324;2022-08-19T09:42:15;62369.91;;;-144.48;100.00
64076;BME280;50327;51.328;12.324;2022-08-19T09:44:41;62369.91;;;-144.48;100.00
64076;BME280;50327;51.328;12.324;2022-08-19T09:47:09;62369.91;;;-144.48;100.00
64076;BME280;50327;51.328;12.324;2022-08-19T09:49:35;62369.91;;;-144.48;100.00
64076;BME280;50327;51.328;12.324;2022-08-19T09:52:00;62369.91;;;-144.48;100.00
64076;BME280;50327;51.328;12.324;2022-08-19T09:54:26;62369.91;;;-144.48;100.00
64076;BME280;50327;51.328;12.324;2022-08-19T09:56:53;62369.91;;;-144.48;100.00
64076;BME280;50327;51.328;12.324;2022-08-19T09:59:19;62369.91;;;-144.48;100.00
64076;BME280;50327;51.328;12.324;2022-08-19T10:01:44;62369.91;;;-144.48;100.00
64076;BME280;50327;51.328;12.324;2022-08-19T10:04:10;62369.91;;;-144.48;100.00
64076;BME280;50327;51.328;12.324;2022-08-19T10:06:37;62369.91;;;-144.48;100.00
64076;BME280;50327;51.328;12.324;2022-08-19T10:09:04;62369.91;;;-144.48;100.00
64076;BME280;50327;51.328;12.324;2022-08-19T10:11:32;62369.91;;;-144.48;100.00
64076;BME280;50327;51.328;12.324;2022-08-19T10:13:57;62369.91;;;-144.48;100.00
64076;BME280;50327;51.328;12.324;2022-08-19T10:16:23;62369.91;;;-144.48;100.00
64076;BME280;50327;51.328;12.324;2022-08-19T10:18:50;62369.91;;;-144.48;100.00
64076;BME280;50327;51.328;12.324;2022-08-19T10:23:47;62369.91;;;-144.48;100.00
64076;BME280;50327;51.328;12.324;2022-08-19T10:26:20;62369.91;;;-144.48;100.00
64076;BME280;50327;51.328;12.324;2022-08-19T10:28:46;62369.91;;;-144.48;100.00
64076;BME280;50327;51.328;12.324;2022-08-19T10:31:16;62369.91;;;-144.48;100.00
64076;BME280;50327;51.328;12.324;2022-08-19T10:33:43;62369.91;;;-144.48;100.00
64076;BME280;50327;51.328;12.324;2022-08-19T10:36:12;62369.91;;;-144.48;100.00
64076;BME280;50327;51.328;12.324;2022-08-19T10:38:40;62369.91;;;-144.48;100.00
64076;BME280;50327;51.328;12.324;2022-08-19T10:41:15;62369.91;;;-144.48;100.00
64076;BME280;50327;51.328;12.324;2022-08-19T10:43:41;62369.91;;;-144.48;100.00
64076;BME280;50327;51.328;12.324;2022-08-19T10:46:08;62369.91;;;-144.48;100.00
64076;BME280;50327;51.328;12.324;2022-08-19T10:48:34;62369.91;;;-144.48;100.00
64076;BME280;50327;51.328;12.324;2022-08-19T10:51:00;62369.91;;;-144.48;100.00
64076;BME280;50327;51.328;12.324;2022-08-19T10:53:44;62369.91;;;-144.48;100.00
64076;BME280;50327;51.328;12.324;2022-08-19T10:56:10;62369.91;;;-144.48;100.00
64076;BME280;50327;51.328;12.324;2022-08-19T10:59:04;62369.91;;;-144.48;100.00
64076;BME280;50327;51.328;12.324;2022-08-19T11:01:31;62369.91;;;-144.48;100.00
64076;BME280;50327;51.328;12.324;2022-08-19T11:04:00;62369.91;;;-144.48;100.00
64076;BME280;50327;51.328;12.324;2022-08-19T11:06:25;62369.91;;;-144.48;100.00
64076;BME280;50327;51.328;12.324;2022-08-19T11:08:52;62369.91;;;-144.48;100.00
64076;BME280;50327;51.328;12.324;2022-08-19T11:11:18;62369.91;;;-144.48;100.00
64076;BME280;50327;51.328;12.324;2022-08-19T11:13:44;62369.91;;;-144.48;100.00
64076;BME280;50327;51.328;12.324;2022-08-19T11:16:17;62369.91;;;-144.48;100.00
64076;BME280;50327;51.328;12.324;2022-08-19T11:18:50;62369.91;;;-144.48;100.00
64076;BME280;50327;51.328;12.324;2022-08-19T11:21:21;62369.91;;;-144.48;100.00
64076;BME280;50327;51.328;12.324;2022-08-19T11:23:51;62369.91;;;-144.48;100.00
64076;BME280;50327;51.328;12.324;2022-08-19T11:26:18;62369.91;;;-144.48;100.00
64076;BME280;50327;51.328;12.324;2022-08-19T11:28:44;62369.91;;;-144.48;100.00
64076;BME280;50327;51.328;12.324;2022-08-19T11:31:13;62369.91;;;-144.48;100.00
64076;BME280;50327;51.328;12.324;2022-08-19T11:33:39;62369.91;;;-144.48;100.00
64076;BME280;50327;51.328;12.324;2022-08-19T11:36:04;62369.91;;;-144.48;100.00
64076;BME280;50327;51.328;12.324;2022-08-19T11:38:30;62369.91;;;-144.48;100.00
64076;BME280;50327;51.328;12.324;2022-08-19T11:41:00;62369.91;;;-144.48;100.00
64076;BME280;50327;51.328;12.324;2022-08-19T11:43:26;62369.91;;;-144.48;100.00
64076;BME280;50327;51.328;12.324;2022-08-19T11:45:53;62369.91;;;-144.48;100.00
64076;BME280;50327;51.328;12.324;2022-08-19T11:48:19;62369.91;;;-144.48;100.00
64076;BME280;50327;51.328;12.324;2022-08-19T11:50:51;62369.91;;;-144.48;100.00
64076;BME280;50327;51.328;12.324;2022-08-19T11:53:17;62369.91;;;-144.48;100.00
64076;BME280;50327;51.328;12.324;2022-08-19T11:55:44;62369.91;;;-144.48;100.00
64076;BME280;50327;51.328;12.324;2022-08-19T11:58:11;62369.91;;;-144.48;100.00
64076;BME280;50327;51.328;12.324;2022-08-19T12:00:38;62369.91;;;-144.48;100.00
64076;BME280;50327;51.328;12.324;2022-08-19T12:03:03;62369.91;;;-144.48;100.00
64076;BME280;50327;51.328;12.324;2022-08-19T12:05:28;62369.91;;;-144.48;100.00
64076;BME280;50327;51.328;12.324;2022-08-19T12:07:54;62369.91;;;-144.48;100.00
64076;BME280;50327;51.328;12.324;2022-08-19T12:10:20;62369.91;;;-144.48;100.00
64076;BME280;50327;51.328;12.324;2022-08-19T12:12:46;62369.91;;;-144.48;100.00
64076;BME280;50327;51.328;12.324;2022-08-19T12:15:12;62369.91;;;-144.48;100.00
64076;BME280;50327;51.328;12.324;2022-08-19T12:17:39;62369.91;;;-144.48;100.00
64076;BME280;50327;51.328;12.324;2022-08-19T12:20:06;62369.91;;;-144.48;100.00
64076;BME280;50327;51.328;12.324;2022-08-19T12:22:34;62369.91;;;-144.48;100.00
64076;BME280;50327;51.328;12.324;2022-08-19T12:25:00;62369.91;;;-144.48;100.00
64076;BME280;50327;51.328;12.324;2022-08-19T12:27:26;62369.91;;;-144.48;100.00
64076;BME280;50327;51.328;12.324;2022-08-19T12:29:51;62369.91;;;-144.48;100.00
64076;BME280;50327;51.328;12.324;2022-08-19T12:32:16;62369.91;;;-144.48;100.00
64076;BME280;50327;51.328;12.324;2022-08-19T12:34:42;62369.91;;;-144.48;100.00
64076;BME280;50327;51.328;12.324;2022-08-19T12:37:07;62369.91;;;-144.48;100.00
64076;BME280;50327;51.328;12.324;2022-08-19T12:39:41;62369.91;;;-144.48;100.00
64076;BME280;50327;51.328;12.324;2022-08-19T12:42:08;62369.91;;;-144.48;100.00
64076;BME280;50327;51.328;12.324;2022-08-19T12:44:36;62369.91;;;-144.48;100.00
64076;BME280;50327;51.328;12.324;2022-08-19T12:47:01;62369.91;;;-144.48;100.00